ADDS METAR Data INFO
IDs: Format: Raw Decoded Include TAF

Data at: 1549 UTC 12 Dec 2017

KPAH 121453Z 35015G24KT 10SM CLR 02/M06 A3018 RMK AO2 SLP219 T00221061 51031
KPAH 121353Z 34012G24KT 10SM FEW039 02/M06 A3015 RMK AO2 SLP210 T00171061
KPAH 121253Z 34010KT 10SM SCT042 03/M04 A3012 RMK AO2 SLP198 T00281044
KPAH 121153Z 34009KT 10SM OVC043 05/M02 A3008 RMK AO2 SLP187 T00501022 10094 20050 53022
KPAH 121053Z AUTO 34010G24KT 10SM SCT027 BKN032 OVC041 06/M01 A3005 RMK AO2 SLP175 T00561006
KPAH 121028Z AUTO 33012G20KT 10SM BKN027 OVC033 06/M01 A3004 RMK AO2 T00611006
KPAH 120953Z AUTO 33011G20KT 10SM SCT031 BKN035 OVC044 07/M01 A3003 RMK AO2 SLP167 T00671006
KPAH 120853Z AUTO 33016G26KT 10SM BKN033 OVC055 07/M01 A3002 RMK AO2 PK WND 35027/0806 SLP164 T00721006 53018
KPAH 120753Z AUTO 35016G25KT 10SM OVC035 08/00 A3000 RMK AO2 SLP159 T00830000
KPAH 120653Z AUTO 33010KT 10SM OVC042 09/M01 A2997 RMK AO2 SLP149 T00891006
KPAH 120553Z AUTO 32011G19KT 10SM OVC050 09/M01 A2996 RMK AO2 SLP146 T00941006 10150 20094 401721033 51013
KPAH 120453Z 29010KT 10SM OVC055 09/M02 A2996 RMK AO2 SLP144 T00941022
KPAH 120353Z 30010G19KT 10SM CLR 10/M03 A2995 RMK AO2 PK WND 31029/0333 SLP140 T01001028
KPAH 120253Z 31011G20KT 10SM OVC070 11/M04 A2993 RMK AO2 SLP134 T01111039 51027
KPAH 120153Z 29010KT 10SM FEW070 11/M05 A2991 RMK AO2 PK WND 32027/0057 SLP129 T01111050
KPAH 120053Z 31013G22KT 10SM CLR 12/M05 A2988 RMK AO2 PK WND 32027/0016 SLP120 T01221050
KPAH 112353Z 29014KT 10SM CLR 15/M01 A2984 RMK AO2 SLP107 T01501011 10172 20133 53021
KPAH 112253Z 24011KT 10SM CLR 14/M01 A2980 RMK AO2 SLP092 T01391006
KPAH 112153Z 23011G21KT 10SM CLR 17/M03 A2979 RMK AO2 SLP087 T01671028
KPAH 112053Z 21013G26KT 10SM CLR 17/M03 A2978 RMK AO2 PK WND 21028/2037 SLP086 T01671033 56050
KPAH 111953Z 21012G20KT 10SM CLR 16/M02 A2979 RMK AO2 PRESFR SLP090 T01561022
KPAH 111853Z 21009G20KT 10SM CLR 16/M02 A2986 RMK AO2 SLP111 T01611022
KPAH 111753Z 21010G23KT 10SM CLR 14/M02 A2993 RMK AO2 SLP136 T01391022 10139 21033 58048
KPAH 111653Z 22013G24KT 10SM CLR 12/M03 A3000 RMK AO2 SLP160 T01171028
KPAH 111553Z 21009KT 10SM CLR 09/M02 A3006 RMK AO2 SLP179 T00891017
KPAH 111453Z 21008KT 10SM CLR 06/M02 A3007 RMK AO2 SLP185 T00561017 58010
KPAH 111353Z 22006KT 10SM CLR 03/M02 A3009 RMK AO2 SLP190 T00281017
KPAH 111253Z 15003KT 10SM CLR M03/M04 A3009 RMK AO2 SLP192 T10281044
KPAH 111153Z 03003KT 10SM CLR M02/M05 A3010 RMK AO2 SLP196 T10221050 10017 21033 55010
KPAH 111053Z AUTO 22004KT 10SM CLR M02/M04 A3010 RMK AO2 SLP196 T10221039
KPAH 110953Z AUTO 00000KT 10SM CLR M02/M04 A3012 RMK AO2 SLP203 T10221044
KPAH 110853Z AUTO 00000KT 10SM CLR M03/M06 A3013 RMK AO2 SLP206 T10281056 55005
KPAH 110753Z AUTO 00000KT 10SM CLR M02/M05 A3013 RMK AO2 SLP203 T10221050
KPAH 110653Z AUTO 00000KT 10SM CLR M02/M04 A3014 RMK AO2 SLP208 T10171044
KPAH 110553Z AUTO 00000KT 10SM CLR M01/M03 A3015 RMK AO2 SLP212 T10061033 10072 21011 401001072 50002
KPAH 110453Z 27004KT 10SM CLR 03/M02 A3015 RMK AO2 SLP212 T00331017
KPAH 110353Z 25005KT 10SM CLR 03/M02 A3015 RMK AO2 SLP212 T00281017